Wednesday, April 23, 2014, 10:38 AM EDT

KRIC, Richmond International Airport

Location: Sandston, VA, United States Lat: 37.517
Local Time: 10:38 AM EDT (14:38 GMT) Lon: -77.317
Time Zone: US/Eastern Elev: 167 ft

Show me the last for .
Show Decoded

2014-04-23 09:54 METAR KRIC 231354Z 31014KT 10SM FEW050 16/00 A2980 RMK AO2 PK WND 33026/1326
                 SLP094 T01610000 =
2014-04-23 08:54 METAR KRIC 231254Z 33011G21KT 10SM CLR 14/00 A2979 RMK AO2 SLP091 T01440000 =
2014-04-23 07:54 METAR KRIC 231154Z 35010KT 10SM CLR 13/01 A2977 RMK AO2 SLP086 T01280011 10172
                 20106 53022 =
2014-04-23 06:54 METAR KRIC 231054Z 36007KT 10SM CLR 11/03 A2974 RMK AO2 SLP076 T01110028 =
2014-04-23 05:54 METAR KRIC 230954Z 36007KT 10SM FEW200 12/03 A2972 RMK AO2 SLP067 T01170033 =
2014-04-23 04:54 METAR KRIC 230854Z 36013KT 10SM FEW200 13/04 A2971 RMK AO2 SLP062 T01330044
                 53017 =
2014-04-23 03:54 METAR KRIC 230754Z 01012KT 9SM FEW200 14/07 A2969 RMK AO2 SLP057 T01440072 =
2014-04-23 02:54 METAR KRIC 230654Z 36012KT 9SM CLR 16/09 A2966 RMK AO2 SLP048 T01560089 =
2014-04-23 01:54 METAR KRIC 230554Z 36013G18KT 9SM FEW090 17/11 A2965 RMK AO2 SLP045 T01720106
                 10217 20161 53011 =
2014-04-23 00:54 METAR KRIC 230454Z 00000KT 10SM FEW070 BKN100 16/12 A2963 RMK AO2 SLP036
                 T01610117 402890094 =
2014-04-22 23:54 METAR KRIC 230354Z 00000KT 10SM BKN085 BKN250 18/12 A2963 RMK AO2 SLP037
                 T01830122 =
2014-04-22 22:54 METAR KRIC 230254Z 25005KT 10SM BKN100 OVC250 21/12 A2962 RMK AO2 SLP034
                 T02060117 51006 =
2014-04-22 21:54 METAR KRIC 230154Z 25006KT 10SM FEW110 BKN250 21/11 A2962 RMK AO2 SLP034
                 T02110111 =
2014-04-22 20:54 METAR KRIC 230054Z 23004KT 10SM SCT110 BKN250 19/12 A2961 RMK AO2 SLP030
                 T01940117 =
2014-04-22 19:54 METAR KRIC 222354Z 21003KT 10SM FEW070 BKN100 OVC250 22/12 A2960 RMK AO2 SLP028
                 60000 T02170117 10289 20211 55003 =
2014-04-22 18:54 METAR KRIC 222254Z 24003KT 9SM BKN070 BKN100 OVC250 24/11 A2960 RMK AO2 RAB34E51
                 SLP027 P0000 T02390106 =
2014-04-22 17:54 METAR KRIC 222154Z 29004KT 9SM BKN085 BKN100 OVC250 25/09 A2960 RMK AO2 RAB11E18
                 SLP029 P0000 T02500089 =
2014-04-22 16:54 METAR KRIC 222054Z 30006KT 10SM FEW080 OVC100 24/10 A2961 RMK AO2 RAB16E35
                 SLP032 P0000 60000 T02440100 56011 =
2014-04-22 15:54 METAR KRIC 221954Z 34008KT 10SM OVC090 24/10 A2963 =
2014-04-22 14:54 METAR KRIC 221854Z 25012KT 9SM BKN095 OVC250 27/06 A2963 RMK AO2 SLP036
                 T02720061 =
2014-04-22 13:54 METAR KRIC 221754Z 22009KT 10SM FEW050 SCT150 OVC250 27/07 A2965 RMK AO2 SLP042
                 T02720067 10278 20122 58026 =
2014-04-22 12:54 METAR KRIC 221654Z 25008KT 10SM FEW150 BKN250 27/07 A2968 RMK AO2 SLP052
                 T02670067 =
2014-04-22 11:54 METAR KRIC 221554Z VRB05KT 10SM FEW150 BKN250 23/08 A2970 RMK AO2 SLP063
                 T02330083 =
2014-04-22 10:54 METAR KRIC 221454Z VRB03KT 10SM FEW150 BKN250 21/08 A2972 RMK AO2 SLP069
                 T02110078 58021 =

Support USWX by starting your Amazon purchase here.